sensor_id;sensor_type;location;lat;lon;timestamp;P1;durP1;ratioP1;P2;durP2;ratioP2
16731;SDS011;8484;50.904;9.192;2023-06-14T00:01:23;1.20;;;1.10;;
16731;SDS011;8484;50.904;9.192;2023-06-14T00:03:51;1.47;;;1.10;;
16731;SDS011;8484;50.904;9.192;2023-06-14T00:06:19;3.47;;;1.20;;
16731;SDS011;8484;50.904;9.192;2023-06-14T00:08:45;1.77;;;1.20;;
16731;SDS011;8484;50.904;9.192;2023-06-14T00:11:12;3.03;;;1.20;;
16731;SDS011;8484;50.904;9.192;2023-06-14T00:13:39;2.00;;;1.20;;
16731;SDS011;8484;50.904;9.192;2023-06-14T00:16:09;2.33;;;1.43;;
16731;SDS011;8484;50.904;9.192;2023-06-14T00:18:36;2.53;;;1.20;;
16731;SDS011;8484;50.904;9.192;2023-06-14T00:21:03;3.27;;;1.23;;
16731;SDS011;8484;50.904;9.192;2023-06-14T00:23:30;1.50;;;1.30;;
16731;SDS011;8484;50.904;9.192;2023-06-14T00:25:58;3.40;;;1.50;;
16731;SDS011;8484;50.904;9.192;2023-06-14T00:28:25;2.27;;;1.10;;
16731;SDS011;8484;50.904;9.192;2023-06-14T00:30:52;1.83;;;1.20;;
16731;SDS011;8484;50.904;9.192;2023-06-14T00:33:20;1.60;;;1.20;;
16731;SDS011;8484;50.904;9.192;2023-06-14T00:35:47;1.53;;;1.10;;
16731;SDS011;8484;50.904;9.192;2023-06-14T00:38:14;2.23;;;1.10;;
16731;SDS011;8484;50.904;9.192;2023-06-14T00:40:43;1.80;;;1.00;;
16731;SDS011;8484;50.904;9.192;2023-06-14T00:43:10;1.27;;;1.17;;
16731;SDS011;8484;50.904;9.192;2023-06-14T00:45:37;3.43;;;1.30;;
16731;SDS011;8484;50.904;9.192;2023-06-14T00:48:05;2.10;;;1.33;;
16731;SDS011;8484;50.904;9.192;2023-06-14T00:50:34;1.70;;;1.10;;
16731;SDS011;8484;50.904;9.192;2023-06-14T00:53:03;4.37;;;1.53;;
16731;SDS011;8484;50.904;9.192;2023-06-14T00:55:30;2.13;;;1.30;;
16731;SDS011;8484;50.904;9.192;2023-06-14T00:57:57;4.60;;;1.20;;
16731;SDS011;8484;50.904;9.192;2023-06-14T01:00:25;4.50;;;1.20;;
16731;SDS011;8484;50.904;9.192;2023-06-14T01:02:53;1.63;;;1.00;;
16731;SDS011;8484;50.904;9.192;2023-06-14T01:05:22;3.33;;;1.33;;
16731;SDS011;8484;50.904;9.192;2023-06-14T01:07:54;3.07;;;1.20;;
16731;SDS011;8484;50.904;9.192;2023-06-14T01:10:33;2.47;;;1.30;;
16731;SDS011;8484;50.904;9.192;2023-06-14T01:13:07;1.70;;;1.30;;
16731;SDS011;8484;50.904;9.192;2023-06-14T01:15:39;1.67;;;1.10;;
16731;SDS011;8484;50.904;9.192;2023-06-14T01:18:09;1.57;;;1.13;;
16731;SDS011;8484;50.904;9.192;2023-06-14T01:20:42;2.60;;;1.30;;
16731;SDS011;8484;50.904;9.192;2023-06-14T01:23:13;3.63;;;1.30;;
16731;SDS011;8484;50.904;9.192;2023-06-14T01:25:40;1.97;;;1.30;;
16731;SDS011;8484;50.904;9.192;2023-06-14T01:28:09;2.93;;;1.17;;
16731;SDS011;8484;50.904;9.192;2023-06-14T01:30:38;1.57;;;1.13;;
16731;SDS011;8484;50.904;9.192;2023-06-14T01:33:10;2.47;;;1.30;;
16731;SDS011;8484;50.904;9.192;2023-06-14T01:35:38;1.47;;;1.20;;
16731;SDS011;8484;50.904;9.192;2023-06-14T01:38:06;2.90;;;1.20;;
16731;SDS011;8484;50.904;9.192;2023-06-14T01:40:35;1.67;;;1.10;;
16731;SDS011;8484;50.904;9.192;2023-06-14T01:43:02;4.47;;;1.40;;
16731;SDS011;8484;50.904;9.192;2023-06-14T01:45:30;5.43;;;1.40;;
16731;SDS011;8484;50.904;9.192;2023-06-14T01:47:59;2.43;;;1.23;;
16731;SDS011;8484;50.904;9.192;2023-06-14T01:50:27;1.33;;;1.20;;
16731;SDS011;8484;50.904;9.192;2023-06-14T01:52:57;3.50;;;1.50;;
16731;SDS011;8484;50.904;9.192;2023-06-14T01:55:24;1.33;;;1.17;;
16731;SDS011;8484;50.904;9.192;2023-06-14T01:57:54;2.77;;;1.30;;
16731;SDS011;8484;50.904;9.192;2023-06-14T02:00:21;1.23;;;1.00;;
16731;SDS011;8484;50.904;9.192;2023-06-14T02:02:48;2.03;;;1.10;;
16731;SDS011;8484;50.904;9.192;2023-06-14T02:05:15;1.10;;;0.93;;
16731;SDS011;8484;50.904;9.192;2023-06-14T02:07:44;2.10;;;1.37;;
16731;SDS011;8484;50.904;9.192;2023-06-14T02:10:11;1.87;;;1.30;;
16731;SDS011;8484;50.904;9.192;2023-06-14T02:12:39;1.40;;;1.30;;
16731;SDS011;8484;50.904;9.192;2023-06-14T02:15:08;1.50;;;1.37;;
16731;SDS011;8484;50.904;9.192;2023-06-14T02:17:42;2.40;;;1.20;;
16731;SDS011;8484;50.904;9.192;2023-06-14T02:20:09;2.23;;;1.23;;
16731;SDS011;8484;50.904;9.192;2023-06-14T02:22:36;2.10;;;1.23;;
16731;SDS011;8484;50.904;9.192;2023-06-14T02:25:03;2.77;;;1.10;;
16731;SDS011;8484;50.904;9.192;2023-06-14T02:27:31;2.97;;;1.40;;
16731;SDS011;8484;50.904;9.192;2023-06-14T02:29:58;1.63;;;1.23;;
16731;SDS011;8484;50.904;9.192;2023-06-14T02:32:27;1.30;;;1.13;;
16731;SDS011;8484;50.904;9.192;2023-06-14T02:34:53;1.20;;;1.07;;
16731;SDS011;8484;50.904;9.192;2023-06-14T02:37:20;3.00;;;1.10;;
16731;SDS011;8484;50.904;9.192;2023-06-14T02:39:47;2.20;;;1.30;;
16731;SDS011;8484;50.904;9.192;2023-06-14T02:42:14;4.63;;;1.30;;
16731;SDS011;8484;50.904;9.192;2023-06-14T02:44:41;1.30;;;1.20;;
16731;SDS011;8484;50.904;9.192;2023-06-14T02:47:08;4.20;;;1.40;;
16731;SDS011;8484;50.904;9.192;2023-06-14T02:49:36;3.00;;;1.40;;
16731;SDS011;8484;50.904;9.192;2023-06-14T02:52:03;3.77;;;1.40;;
16731;SDS011;8484;50.904;9.192;2023-06-14T02:54:31;2.33;;;1.27;;
16731;SDS011;8484;50.904;9.192;2023-06-14T02:56:58;2.67;;;1.27;;
16731;SDS011;8484;50.904;9.192;2023-06-14T02:59:25;1.93;;;1.20;;
16731;SDS011;8484;50.904;9.192;2023-06-14T03:01:52;2.20;;;1.33;;
16731;SDS011;8484;50.904;9.192;2023-06-14T03:04:18;2.03;;;1.40;;
16731;SDS011;8484;50.904;9.192;2023-06-14T03:06:47;2.30;;;1.30;;
16731;SDS011;8484;50.904;9.192;2023-06-14T03:09:15;1.57;;;1.20;;
16731;SDS011;8484;50.904;9.192;2023-06-14T03:11:42;2.20;;;1.20;;
16731;SDS011;8484;50.904;9.192;2023-06-14T03:14:09;1.33;;;1.20;;
16731;SDS011;8484;50.904;9.192;2023-06-14T03:16:36;1.20;;;1.10;;
16731;SDS011;8484;50.904;9.192;2023-06-14T03:19:03;2.40;;;1.30;;
16731;SDS011;8484;50.904;9.192;2023-06-14T03:21:30;2.77;;;1.23;;
16731;SDS011;8484;50.904;9.192;2023-06-14T03:24:00;1.10;;;1.00;;
16731;SDS011;8484;50.904;9.192;2023-06-14T03:26:28;1.03;;;0.90;;
16731;SDS011;8484;50.904;9.192;2023-06-14T03:28:55;1.10;;;1.00;;
16731;SDS011;8484;50.904;9.192;2023-06-14T03:31:22;1.10;;;0.93;;
16731;SDS011;8484;50.904;9.192;2023-06-14T03:33:49;1.43;;;1.20;;
16731;SDS011;8484;50.904;9.192;2023-06-14T03:36:16;4.37;;;1.33;;
16731;SDS011;8484;50.904;9.192;2023-06-14T03:38:47;1.40;;;1.10;;
16731;SDS011;8484;50.904;9.192;2023-06-14T03:41:15;1.57;;;1.20;;
16731;SDS011;8484;50.904;9.192;2023-06-14T03:43:42;2.20;;;1.40;;
16731;SDS011;8484;50.904;9.192;2023-06-14T03:46:09;2.17;;;1.10;;
16731;SDS011;8484;50.904;9.192;2023-06-14T03:48:36;1.97;;;1.20;;
16731;SDS011;8484;50.904;9.192;2023-06-14T03:51:03;1.47;;;1.07;;
16731;SDS011;8484;50.904;9.192;2023-06-14T03:53:30;1.57;;;1.20;;
16731;SDS011;8484;50.904;9.192;2023-06-14T03:55:57;2.47;;;1.40;;
16731;SDS011;8484;50.904;9.192;2023-06-14T03:58:27;1.33;;;0.93;;
16731;SDS011;8484;50.904;9.192;2023-06-14T04:00:54;3.33;;;1.20;;
16731;SDS011;8484;50.904;9.192;2023-06-14T04:03:21;1.40;;;1.30;;
16731;SDS011;8484;50.904;9.192;2023-06-14T04:05:54;2.33;;;1.03;;
16731;SDS011;8484;50.904;9.192;2023-06-14T04:08:24;1.87;;;1.23;;
16731;SDS011;8484;50.904;9.192;2023-06-14T04:10:51;1.40;;;1.03;;
16731;SDS011;8484;50.904;9.192;2023-06-14T04:13:18;1.13;;;1.00;;
16731;SDS011;8484;50.904;9.192;2023-06-14T04:15:46;2.70;;;1.00;;
16731;SDS011;8484;50.904;9.192;2023-06-14T04:18:13;1.07;;;1.00;;
16731;SDS011;8484;50.904;9.192;2023-06-14T04:20:40;3.03;;;1.10;;
16731;SDS011;8484;50.904;9.192;2023-06-14T04:23:16;2.77;;;1.27;;
16731;SDS011;8484;50.904;9.192;2023-06-14T04:25:44;1.27;;;0.93;;
16731;SDS011;8484;50.904;9.192;2023-06-14T04:28:12;2.60;;;1.10;;
16731;SDS011;8484;50.904;9.192;2023-06-14T04:30:40;1.43;;;1.00;;
16731;SDS011;8484;50.904;9.192;2023-06-14T04:33:09;1.53;;;1.10;;
16731;SDS011;8484;50.904;9.192;2023-06-14T04:35:36;1.97;;;1.10;;
16731;SDS011;8484;50.904;9.192;2023-06-14T04:38:04;1.70;;;1.00;;
16731;SDS011;8484;50.904;9.192;2023-06-14T04:40:34;2.30;;;1.03;;
16731;SDS011;8484;50.904;9.192;2023-06-14T04:43:07;2.47;;;1.20;;
16731;SDS011;8484;50.904;9.192;2023-06-14T04:45:37;2.53;;;1.10;;
16731;SDS011;8484;50.904;9.192;2023-06-14T04:48:05;2.60;;;0.90;;
16731;SDS011;8484;50.904;9.192;2023-06-14T04:50:34;1.57;;;0.90;;
16731;SDS011;8484;50.904;9.192;2023-06-14T04:53:01;2.90;;;1.10;;
16731;SDS011;8484;50.904;9.192;2023-06-14T04:55:28;3.90;;;1.10;;
16731;SDS011;8484;50.904;9.192;2023-06-14T04:57:56;2.83;;;1.00;;
16731;SDS011;8484;50.904;9.192;2023-06-14T05:00:23;2.70;;;1.30;;
16731;SDS011;8484;50.904;9.192;2023-06-14T05:02:49;3.70;;;1.00;;
16731;SDS011;8484;50.904;9.192;2023-06-14T05:05:18;5.00;;;1.20;;
16731;SDS011;8484;50.904;9.192;2023-06-14T05:07:47;1.20;;;1.10;;
16731;SDS011;8484;50.904;9.192;2023-06-14T05:10:13;5.43;;;1.03;;
16731;SDS011;8484;50.904;9.192;2023-06-14T05:12:40;2.60;;;1.10;;
16731;SDS011;8484;50.904;9.192;2023-06-14T05:15:09;4.00;;;1.20;;
16731;SDS011;8484;50.904;9.192;2023-06-14T05:17:36;1.03;;;0.93;;
16731;SDS011;8484;50.904;9.192;2023-06-14T05:20:05;1.47;;;0.90;;
16731;SDS011;8484;50.904;9.192;2023-06-14T05:22:35;2.07;;;0.93;;
16731;SDS011;8484;50.904;9.192;2023-06-14T05:25:06;1.93;;;1.07;;
16731;SDS011;8484;50.904;9.192;2023-06-14T05:27:34;2.70;;;1.20;;
16731;SDS011;8484;50.904;9.192;2023-06-14T05:30:06;3.27;;;1.03;;
16731;SDS011;8484;50.904;9.192;2023-06-14T05:32:34;2.90;;;0.93;;
16731;SDS011;8484;50.904;9.192;2023-06-14T05:35:01;3.37;;;0.83;;
16731;SDS011;8484;50.904;9.192;2023-06-14T05:37:29;2.63;;;1.20;;
16731;SDS011;8484;50.904;9.192;2023-06-14T05:39:56;1.47;;;1.10;;
16731;SDS011;8484;50.904;9.192;2023-06-14T05:42:24;1.87;;;1.30;;
16731;SDS011;8484;50.904;9.192;2023-06-14T05:44:51;1.00;;;0.90;;
16731;SDS011;8484;50.904;9.192;2023-06-14T05:47:18;0.83;;;0.80;;
16731;SDS011;8484;50.904;9.192;2023-06-14T05:49:45;1.43;;;1.00;;
16731;SDS011;8484;50.904;9.192;2023-06-14T05:52:12;0.97;;;0.90;;
16731;SDS011;8484;50.904;9.192;2023-06-14T05:54:39;1.63;;;0.90;;
16731;SDS011;8484;50.904;9.192;2023-06-14T05:57:06;1.00;;;0.90;;
16731;SDS011;8484;50.904;9.192;2023-06-14T05:59:34;1.00;;;0.80;;
16731;SDS011;8484;50.904;9.192;2023-06-14T06:02:01;3.10;;;1.20;;
16731;SDS011;8484;50.904;9.192;2023-06-14T06:04:28;4.17;;;0.97;;
16731;SDS011;8484;50.904;9.192;2023-06-14T06:06:56;0.97;;;0.70;;
16731;SDS011;8484;50.904;9.192;2023-06-14T06:09:22;3.63;;;0.90;;
16731;SDS011;8484;50.904;9.192;2023-06-14T06:11:49;1.53;;;1.00;;
16731;SDS011;8484;50.904;9.192;2023-06-14T06:14:19;2.40;;;0.87;;
16731;SDS011;8484;50.904;9.192;2023-06-14T06:16:47;2.40;;;1.00;;
16731;SDS011;8484;50.904;9.192;2023-06-14T06:19:14;1.90;;;0.70;;
16731;SDS011;8484;50.904;9.192;2023-06-14T06:21:41;0.70;;;0.63;;
16731;SDS011;8484;50.904;9.192;2023-06-14T06:24:08;4.20;;;0.97;;
16731;SDS011;8484;50.904;9.192;2023-06-14T06:26:34;1.23;;;0.70;;
16731;SDS011;8484;50.904;9.192;2023-06-14T06:29:01;0.87;;;0.70;;
16731;SDS011;8484;50.904;9.192;2023-06-14T06:31:28;2.17;;;0.80;;
16731;SDS011;8484;50.904;9.192;2023-06-14T06:33:57;2.47;;;0.80;;
16731;SDS011;8484;50.904;9.192;2023-06-14T06:36:23;1.03;;;0.70;;
16731;SDS011;8484;50.904;9.192;2023-06-14T06:38:50;1.53;;;0.93;;
16731;SDS011;8484;50.904;9.192;2023-06-14T06:41:18;1.30;;;0.90;;
16731;SDS011;8484;50.904;9.192;2023-06-14T06:43:45;1.23;;;0.80;;
16731;SDS011;8484;50.904;9.192;2023-06-14T06:46:13;0.87;;;0.80;;
16731;SDS011;8484;50.904;9.192;2023-06-14T06:48:39;2.13;;;1.10;;
16731;SDS011;8484;50.904;9.192;2023-06-14T06:51:10;1.10;;;1.00;;
16731;SDS011;8484;50.904;9.192;2023-06-14T06:53:38;4.83;;;0.90;;
16731;SDS011;8484;50.904;9.192;2023-06-14T06:56:05;1.53;;;1.10;;
16731;SDS011;8484;50.904;9.192;2023-06-14T06:58:32;1.83;;;0.80;;
16731;SDS011;8484;50.904;9.192;2023-06-14T07:00:59;1.03;;;0.93;;
16731;SDS011;8484;50.904;9.192;2023-06-14T07:03:26;3.37;;;1.10;;
16731;SDS011;8484;50.904;9.192;2023-06-14T07:05:53;1.57;;;0.87;;
16731;SDS011;8484;50.904;9.192;2023-06-14T07:08:21;1.40;;;0.80;;
16731;SDS011;8484;50.904;9.192;2023-06-14T07:10:48;1.77;;;0.90;;
16731;SDS011;8484;50.904;9.192;2023-06-14T07:13:19;1.23;;;0.90;;
16731;SDS011;8484;50.904;9.192;2023-06-14T07:15:48;2.50;;;0.90;;
16731;SDS011;8484;50.904;9.192;2023-06-14T07:18:15;1.10;;;1.00;;
16731;SDS011;8484;50.904;9.192;2023-06-14T07:20:42;2.60;;;1.10;;
16731;SDS011;8484;50.904;9.192;2023-06-14T07:23:09;2.20;;;0.97;;
16731;SDS011;8484;50.904;9.192;2023-06-14T07:25:37;1.07;;;0.93;;
16731;SDS011;8484;50.904;9.192;2023-06-14T07:28:04;1.53;;;1.00;;
16731;SDS011;8484;50.904;9.192;2023-06-14T07:30:32;1.93;;;1.07;;
16731;SDS011;8484;50.904;9.192;2023-06-14T07:32:59;1.47;;;1.10;;
16731;SDS011;8484;50.904;9.192;2023-06-14T07:35:26;3.00;;;1.10;;
16731;SDS011;8484;50.904;9.192;2023-06-14T07:37:53;2.70;;;1.10;;
16731;SDS011;8484;50.904;9.192;2023-06-14T07:40:20;1.50;;;0.90;;
16731;SDS011;8484;50.904;9.192;2023-06-14T07:42:48;1.33;;;1.00;;
16731;SDS011;8484;50.904;9.192;2023-06-14T07:45:16;1.00;;;0.90;;
16731;SDS011;8484;50.904;9.192;2023-06-14T07:47:43;1.20;;;0.97;;
16731;SDS011;8484;50.904;9.192;2023-06-14T07:50:10;1.07;;;0.80;;
16731;SDS011;8484;50.904;9.192;2023-06-14T07:52:37;1.87;;;0.90;;
16731;SDS011;8484;50.904;9.192;2023-06-14T07:55:05;4.23;;;1.00;;
16731;SDS011;8484;50.904;9.192;2023-06-14T07:57:32;1.47;;;1.03;;
16731;SDS011;8484;50.904;9.192;2023-06-14T08:00:01;0.97;;;0.90;;
16731;SDS011;8484;50.904;9.192;2023-06-14T08:02:31;1.77;;;1.10;;
16731;SDS011;8484;50.904;9.192;2023-06-14T08:04:58;1.33;;;0.90;;
16731;SDS011;8484;50.904;9.192;2023-06-14T08:07:25;1.67;;;0.87;;
16731;SDS011;8484;50.904;9.192;2023-06-14T08:09:55;1.30;;;0.93;;
16731;SDS011;8484;50.904;9.192;2023-06-14T08:12:22;1.57;;;1.00;;
16731;SDS011;8484;50.904;9.192;2023-06-14T08:14:50;2.63;;;0.90;;
16731;SDS011;8484;50.904;9.192;2023-06-14T08:17:18;0.70;;;0.60;;
16731;SDS011;8484;50.904;9.192;2023-06-14T08:19:45;1.10;;;0.90;;
16731;SDS011;8484;50.904;9.192;2023-06-14T08:22:12;0.90;;;0.80;;
16731;SDS011;8484;50.904;9.192;2023-06-14T08:24:39;7.03;;;1.30;;
16731;SDS011;8484;50.904;9.192;2023-06-14T08:27:07;1.00;;;0.70;;
16731;SDS011;8484;50.904;9.192;2023-06-14T08:29:38;2.80;;;0.90;;
16731;SDS011;8484;50.904;9.192;2023-06-14T08:32:06;2.53;;;0.87;;
16731;SDS011;8484;50.904;9.192;2023-06-14T08:34:35;1.53;;;0.90;;
16731;SDS011;8484;50.904;9.192;2023-06-14T08:37:02;0.80;;;0.70;;
16731;SDS011;8484;50.904;9.192;2023-06-14T08:39:30;1.10;;;0.80;;
16731;SDS011;8484;50.904;9.192;2023-06-14T08:41:57;2.43;;;1.00;;
16731;SDS011;8484;50.904;9.192;2023-06-14T08:44:30;0.90;;;0.70;;
16731;SDS011;8484;50.904;9.192;2023-06-14T08:46:57;1.40;;;0.73;;
16731;SDS011;8484;50.904;9.192;2023-06-14T08:49:26;0.83;;;0.63;;
16731;SDS011;8484;50.904;9.192;2023-06-14T08:51:56;2.63;;;0.80;;
16731;SDS011;8484;50.904;9.192;2023-06-14T08:54:27;2.77;;;0.80;;
16731;SDS011;8484;50.904;9.192;2023-06-14T08:56:56;3.13;;;0.80;;
16731;SDS011;8484;50.904;9.192;2023-06-14T08:59:31;1.70;;;0.90;;
16731;SDS011;8484;50.904;9.192;2023-06-14T09:02:05;1.03;;;0.77;;
16731;SDS011;8484;50.904;9.192;2023-06-14T09:04:40;0.87;;;0.70;;
16731;SDS011;8484;50.904;9.192;2023-06-14T09:07:12;1.10;;;0.70;;
16731;SDS011;8484;50.904;9.192;2023-06-14T09:09:39;1.00;;;0.90;;
16731;SDS011;8484;50.904;9.192;2023-06-14T09:12:07;0.77;;;0.60;;
16731;SDS011;8484;50.904;9.192;2023-06-14T09:14:36;0.67;;;0.60;;
16731;SDS011;8484;50.904;9.192;2023-06-14T09:17:06;0.70;;;0.70;;
16731;SDS011;8484;50.904;9.192;2023-06-14T09:19:33;0.80;;;0.70;;
16731;SDS011;8484;50.904;9.192;2023-06-14T09:22:00;0.93;;;0.80;;
16731;SDS011;8484;50.904;9.192;2023-06-14T09:24:30;0.60;;;0.60;;
16731;SDS011;8484;50.904;9.192;2023-06-14T09:26:59;0.73;;;0.70;;
16731;SDS011;8484;50.904;9.192;2023-06-14T09:29:26;1.17;;;0.80;;
16731;SDS011;8484;50.904;9.192;2023-06-14T09:31:53;5.77;;;0.90;;
16731;SDS011;8484;50.904;9.192;2023-06-14T09:34:21;1.50;;;0.80;;
16731;SDS011;8484;50.904;9.192;2023-06-14T09:36:48;1.10;;;0.93;;
16731;SDS011;8484;50.904;9.192;2023-06-14T09:39:16;0.70;;;0.60;;
16731;SDS011;8484;50.904;9.192;2023-06-14T09:41:45;0.80;;;0.70;;
16731;SDS011;8484;50.904;9.192;2023-06-14T09:44:12;1.90;;;1.00;;
16731;SDS011;8484;50.904;9.192;2023-06-14T09:46:39;3.03;;;0.83;;
16731;SDS011;8484;50.904;9.192;2023-06-14T09:49:06;0.93;;;0.80;;
16731;SDS011;8484;50.904;9.192;2023-06-14T09:51:33;2.10;;;0.50;;
16731;SDS011;8484;50.904;9.192;2023-06-14T09:54:06;1.83;;;0.80;;
16731;SDS011;8484;50.904;9.192;2023-06-14T09:56:35;0.70;;;0.60;;
16731;SDS011;8484;50.904;9.192;2023-06-14T09:59:05;1.13;;;0.80;;
16731;SDS011;8484;50.904;9.192;2023-06-14T10:01:36;1.07;;;0.70;;
16731;SDS011;8484;50.904;9.192;2023-06-14T10:04:09;1.40;;;0.83;;
16731;SDS011;8484;50.904;9.192;2023-06-14T10:06:38;1.03;;;0.80;;
16731;SDS011;8484;50.904;9.192;2023-06-14T10:09:07;5.03;;;0.80;;
16731;SDS011;8484;50.904;9.192;2023-06-14T10:11:35;3.03;;;0.80;;
16731;SDS011;8484;50.904;9.192;2023-06-14T10:14:03;0.60;;;0.60;;
16731;SDS011;8484;50.904;9.192;2023-06-14T10:16:34;0.93;;;0.70;;
16731;SDS011;8484;50.904;9.192;2023-06-14T10:19:07;0.70;;;0.70;;
16731;SDS011;8484;50.904;9.192;2023-06-14T10:21:41;2.10;;;0.87;;
16731;SDS011;8484;50.904;9.192;2023-06-14T10:24:15;1.70;;;0.80;;
16731;SDS011;8484;50.904;9.192;2023-06-14T10:26:50;0.70;;;0.70;;
16731;SDS011;8484;50.904;9.192;2023-06-14T10:29:19;0.70;;;0.70;;
16731;SDS011;8484;50.904;9.192;2023-06-14T10:31:46;0.80;;;0.80;;
16731;SDS011;8484;50.904;9.192;2023-06-14T10:34:22;1.73;;;0.70;;
16731;SDS011;8484;50.904;9.192;2023-06-14T10:37:03;1.50;;;0.70;;
16731;SDS011;8484;50.904;9.192;2023-06-14T10:39:31;0.70;;;0.70;;
16731;SDS011;8484;50.904;9.192;2023-06-14T10:42:02;1.07;;;0.67;;
16731;SDS011;8484;50.904;9.192;2023-06-14T10:47:21;2.53;;;0.77;;
16731;SDS011;8484;50.904;9.192;2023-06-14T10:49:52;2.80;;;0.90;;
16731;SDS011;8484;50.904;9.192;2023-06-14T10:52:21;2.30;;;0.70;;
16731;SDS011;8484;50.904;9.192;2023-06-14T10:57:43;0.93;;;0.70;;
16731;SDS011;8484;50.904;9.192;2023-06-14T11:00:14;3.07;;;0.80;;
16731;SDS011;8484;50.904;9.192;2023-06-14T11:02:52;2.80;;;0.70;;
16731;SDS011;8484;50.904;9.192;2023-06-14T11:05:50;0.77;;;0.77;;
16731;SDS011;8484;50.904;9.192;2023-06-14T11:11:36;0.90;;;0.70;;
16731;SDS011;8484;50.904;9.192;2023-06-14T11:14:12;0.90;;;0.73;;
16731;SDS011;8484;50.904;9.192;2023-06-14T11:16:40;3.03;;;0.60;;
16731;SDS011;8484;50.904;9.192;2023-06-14T11:19:07;1.50;;;0.80;;
16731;SDS011;8484;50.904;9.192;2023-06-14T11:21:34;0.90;;;0.70;;
16731;SDS011;8484;50.904;9.192;2023-06-14T11:24:09;1.80;;;0.70;;
16731;SDS011;8484;50.904;9.192;2023-06-14T11:26:37;0.93;;;0.60;;
16731;SDS011;8484;50.904;9.192;2023-06-14T11:29:04;0.77;;;0.73;;
16731;SDS011;8484;50.904;9.192;2023-06-14T11:31:31;1.20;;;0.80;;
16731;SDS011;8484;50.904;9.192;2023-06-14T11:33:59;0.80;;;0.70;;
16731;SDS011;8484;50.904;9.192;2023-06-14T11:36:27;1.80;;;0.80;;
16731;SDS011;8484;50.904;9.192;2023-06-14T11:38:57;0.70;;;0.70;;
16731;SDS011;8484;50.904;9.192;2023-06-14T11:41:31;0.80;;;0.80;;
16731;SDS011;8484;50.904;9.192;2023-06-14T11:43:59;1.23;;;0.70;;
16731;SDS011;8484;50.904;9.192;2023-06-14T11:46:27;2.03;;;0.70;;
16731;SDS011;8484;50.904;9.192;2023-06-14T11:48:54;0.90;;;0.70;;
16731;SDS011;8484;50.904;9.192;2023-06-14T11:51:23;1.67;;;0.87;;
16731;SDS011;8484;50.904;9.192;2023-06-14T11:53:50;1.10;;;0.70;;
16731;SDS011;8484;50.904;9.192;2023-06-14T11:56:18;0.73;;;0.73;;
16731;SDS011;8484;50.904;9.192;2023-06-14T11:58:45;1.17;;;0.80;;
16731;SDS011;8484;50.904;9.192;2023-06-14T12:01:14;1.30;;;0.80;;
16731;SDS011;8484;50.904;9.192;2023-06-14T12:03:47;0.97;;;0.80;;
16731;SDS011;8484;50.904;9.192;2023-06-14T12:06:15;1.47;;;0.80;;
16731;SDS011;8484;50.904;9.192;2023-06-14T12:08:44;1.10;;;0.83;;
16731;SDS011;8484;50.904;9.192;2023-06-14T12:11:14;2.47;;;0.80;;
16731;SDS011;8484;50.904;9.192;2023-06-14T12:13:42;1.80;;;0.83;;
16731;SDS011;8484;50.904;9.192;2023-06-14T12:16:09;0.67;;;0.67;;
16731;SDS011;8484;50.904;9.192;2023-06-14T12:18:38;1.00;;;0.87;;
16731;SDS011;8484;50.904;9.192;2023-06-14T12:21:06;0.73;;;0.73;;
16731;SDS011;8484;50.904;9.192;2023-06-14T12:23:43;3.53;;;0.83;;
16731;SDS011;8484;50.904;9.192;2023-06-14T12:26:12;0.83;;;0.70;;
16731;SDS011;8484;50.904;9.192;2023-06-14T12:28:41;1.33;;;0.80;;
16731;SDS011;8484;50.904;9.192;2023-06-14T12:31:12;1.40;;;0.80;;
16731;SDS011;8484;50.904;9.192;2023-06-14T12:33:40;0.80;;;0.70;;
16731;SDS011;8484;50.904;9.192;2023-06-14T12:36:10;2.00;;;0.67;;
16731;SDS011;8484;50.904;9.192;2023-06-14T12:38:38;1.10;;;0.70;;
16731;SDS011;8484;50.904;9.192;2023-06-14T12:41:06;1.63;;;0.83;;
16731;SDS011;8484;50.904;9.192;2023-06-14T12:43:33;1.23;;;0.80;;
16731;SDS011;8484;50.904;9.192;2023-06-14T12:46:00;2.30;;;1.00;;
16731;SDS011;8484;50.904;9.192;2023-06-14T12:48:27;0.93;;;0.60;;
16731;SDS011;8484;50.904;9.192;2023-06-14T12:50:56;0.97;;;0.70;;
16731;SDS011;8484;50.904;9.192;2023-06-14T12:53:24;2.53;;;0.70;;
16731;SDS011;8484;50.904;9.192;2023-06-14T12:55:57;2.00;;;0.70;;
16731;SDS011;8484;50.904;9.192;2023-06-14T12:58:30;1.07;;;0.80;;
16731;SDS011;8484;50.904;9.192;2023-06-14T13:00:57;0.90;;;0.70;;
16731;SDS011;8484;50.904;9.192;2023-06-14T13:03:27;3.00;;;0.90;;
16731;SDS011;8484;50.904;9.192;2023-06-14T13:05:58;0.80;;;0.80;;
16731;SDS011;8484;50.904;9.192;2023-06-14T13:08:25;0.60;;;0.60;;
16731;SDS011;8484;50.904;9.192;2023-06-14T13:10:52;0.60;;;0.60;;
16731;SDS011;8484;50.904;9.192;2023-06-14T13:13:19;0.97;;;0.70;;
16731;SDS011;8484;50.904;9.192;2023-06-14T13:15:48;1.43;;;0.60;;
16731;SDS011;8484;50.904;9.192;2023-06-14T13:18:16;1.03;;;0.70;;
16731;SDS011;8484;50.904;9.192;2023-06-14T13:20:43;1.23;;;0.77;;
16731;SDS011;8484;50.904;9.192;2023-06-14T13:23:11;2.60;;;0.60;;
16731;SDS011;8484;50.904;9.192;2023-06-14T13:25:38;1.73;;;0.60;;
16731;SDS011;8484;50.904;9.192;2023-06-14T13:28:06;0.90;;;0.70;;
16731;SDS011;8484;50.904;9.192;2023-06-14T13:30:33;1.67;;;0.60;;
16731;SDS011;8484;50.904;9.192;2023-06-14T13:33:03;0.97;;;0.60;;
16731;SDS011;8484;50.904;9.192;2023-06-14T13:35:30;0.80;;;0.70;;
16731;SDS011;8484;50.904;9.192;2023-06-14T13:37:57;1.03;;;0.80;;
16731;SDS011;8484;50.904;9.192;2023-06-14T13:40:30;0.80;;;0.77;;
16731;SDS011;8484;50.904;9.192;2023-06-14T13:42:58;2.13;;;0.90;;
16731;SDS011;8484;50.904;9.192;2023-06-14T13:45:25;2.07;;;1.10;;
16731;SDS011;8484;50.904;9.192;2023-06-14T13:47:52;0.87;;;0.77;;
16731;SDS011;8484;50.904;9.192;2023-06-14T13:50:21;1.17;;;0.90;;
16731;SDS011;8484;50.904;9.192;2023-06-14T13:52:48;2.40;;;0.70;;
16731;SDS011;8484;50.904;9.192;2023-06-14T13:55:15;2.90;;;0.73;;
16731;SDS011;8484;50.904;9.192;2023-06-14T13:57:42;1.67;;;0.90;;
16731;SDS011;8484;50.904;9.192;2023-06-14T14:00:10;0.70;;;0.70;;
16731;SDS011;8484;50.904;9.192;2023-06-14T14:02:41;0.87;;;0.70;;
16731;SDS011;8484;50.904;9.192;2023-06-14T14:05:09;4.10;;;0.77;;
16731;SDS011;8484;50.904;9.192;2023-06-14T14:07:37;0.87;;;0.80;;
16731;SDS011;8484;50.904;9.192;2023-06-14T14:10:05;2.53;;;0.80;;
16731;SDS011;8484;50.904;9.192;2023-06-14T14:12:33;2.20;;;0.70;;
16731;SDS011;8484;50.904;9.192;2023-06-14T14:15:04;2.03;;;0.80;;
16731;SDS011;8484;50.904;9.192;2023-06-14T14:17:32;1.27;;;0.70;;
16731;SDS011;8484;50.904;9.192;2023-06-14T14:19:59;1.90;;;0.90;;
16731;SDS011;8484;50.904;9.192;2023-06-14T14:22:26;1.53;;;0.80;;
16731;SDS011;8484;50.904;9.192;2023-06-14T14:24:55;3.60;;;0.70;;
16731;SDS011;8484;50.904;9.192;2023-06-14T14:27:22;1.00;;;0.90;;
16731;SDS011;8484;50.904;9.192;2023-06-14T14:29:49;1.23;;;0.70;;
16731;SDS011;8484;50.904;9.192;2023-06-14T14:32:16;2.63;;;0.80;;
16731;SDS011;8484;50.904;9.192;2023-06-14T14:34:42;1.63;;;0.70;;
16731;SDS011;8484;50.904;9.192;2023-06-14T14:37:10;1.00;;;0.80;;
16731;SDS011;8484;50.904;9.192;2023-06-14T14:39:38;1.23;;;0.80;;
16731;SDS011;8484;50.904;9.192;2023-06-14T14:42:07;1.30;;;0.63;;
16731;SDS011;8484;50.904;9.192;2023-06-14T14:44:34;3.07;;;0.73;;
16731;SDS011;8484;50.904;9.192;2023-06-14T14:47:02;3.17;;;0.87;;
16731;SDS011;8484;50.904;9.192;2023-06-14T14:49:30;0.90;;;0.80;;
16731;SDS011;8484;50.904;9.192;2023-06-14T14:51:57;1.43;;;0.83;;
16731;SDS011;8484;50.904;9.192;2023-06-14T14:54:30;1.23;;;0.73;;
16731;SDS011;8484;50.904;9.192;2023-06-14T14:56:57;5.13;;;1.13;;
16731;SDS011;8484;50.904;9.192;2023-06-14T14:59:25;0.90;;;0.70;;
16731;SDS011;8484;50.904;9.192;2023-06-14T15:01:53;0.90;;;0.67;;
16731;SDS011;8484;50.904;9.192;2023-06-14T15:04:20;1.17;;;0.60;;
16731;SDS011;8484;50.904;9.192;2023-06-14T15:06:47;0.87;;;0.70;;
16731;SDS011;8484;50.904;9.192;2023-06-14T15:09:14;1.23;;;0.90;;
16731;SDS011;8484;50.904;9.192;2023-06-14T15:11:40;0.93;;;0.63;;
16731;SDS011;8484;50.904;9.192;2023-06-14T15:14:09;0.70;;;0.70;;
16731;SDS011;8484;50.904;9.192;2023-06-14T15:16:38;1.87;;;0.80;;